Time;durP1;ratioP1;P1;durP2;ratioP2;P2;SDS_P1;SDS_P2;PMS_P1;PMS_P2;Temp;Humidity;BMP_temperature;BMP_pressure;BME280_temperature;BME280_humidity;BME280_pressure;Samples;Min_cycle;Max_cycle;Signal;HPM_P1;HPM_P2
2023/09/04 00:02:02;;;;;;;1.57;1.47;;;26.20;70.60;;;;;;5110867;28;20495;-76
2023/09/04 00:04:30;;;;;;;1.80;1.70;;;26.20;70.60;;;;;;5110595;28;20458;-76
2023/09/04 00:06:58;;;;;;;2.07;1.97;;;26.20;70.60;;;;;;5113704;28;20471;-76
2023/09/04 00:09:26;;;;;;;2.90;1.60;;;26.20;70.70;;;;;;5113014;28;20428;-76
2023/09/04 00:11:54;;;;;;;1.73;1.63;;;26.10;70.60;;;;;;5109174;28;20454;-76
2023/09/04 00:14:23;;;;;;;1.87;1.77;;;26.10;70.70;;;;;;5108827;28;21250;-76
2023/09/04 00:16:51;;;;;;;1.70;1.60;;;26.10;70.70;;;;;;5112569;28;20458;-76
2023/09/04 00:19:21;;;;;;;1.90;1.70;;;26.10;70.60;;;;;;5112590;28;20456;-76
2023/09/04 00:21:49;;;;;;;1.73;1.63;;;26.10;70.60;;;;;;5112613;28;20419;-76
2023/09/04 00:24:20;;;;;;;2.40;1.97;;;26.10;70.70;;;;;;5111083;28;20512;-76
2023/09/04 00:26:48;;;;;;;2.20;2.00;;;26.10;70.70;;;;;;5112362;28;20960;-76
2023/09/04 00:29:16;;;;;;;2.67;2.07;;;26.10;70.70;;;;;;5111025;28;20448;-76
2023/09/04 00:31:44;;;;;;;2.67;1.93;;;26.10;70.70;;;;;;5112576;28;20840;-77
2023/09/04 00:34:13;;;;;;;1.50;1.43;;;26.10;70.70;;;;;;5112284;28;20904;-76
2023/09/04 00:36:42;;;;;;;1.77;1.67;;;26.10;70.70;;;;;;5112604;28;20447;-77
2023/09/04 00:39:10;;;;;;;1.90;1.80;;;26.10;70.70;;;;;;5094544;28;20545;-76
2023/09/04 00:41:39;;;;;;;1.83;1.67;;;26.10;70.70;;;;;;5074594;28;20458;-75
2023/09/04 00:44:07;;;;;;;2.10;2.00;;;26.10;70.70;;;;;;5085563;28;20460;-76
2023/09/04 00:46:36;;;;;;;1.77;1.67;;;26.10;70.70;;;;;;5111570;28;20505;-76
2023/09/04 00:49:04;;;;;;;1.93;1.60;;;26.10;70.70;;;;;;5112357;28;20447;-76
2023/09/04 00:51:33;;;;;;;1.83;1.73;;;26.10;70.70;;;;;;5110945;28;20431;-76
2023/09/04 00:54:03;;;;;;;1.73;1.63;;;26.00;70.70;;;;;;5112066;28;20805;-76
2023/09/04 00:56:32;;;;;;;2.00;1.90;;;26.00;70.70;;;;;;5093265;28;20510;-75
2023/09/04 00:59:00;;;;;;;1.50;1.40;;;26.00;70.70;;;;;;5111431;28;20440;-76
2023/09/04 01:01:29;;;;;;;1.80;1.70;;;26.00;70.70;;;;;;5091343;28;20776;-76
2023/09/04 01:03:57;;;;;;;1.70;1.60;;;26.00;70.70;;;;;;5092067;28;20467;-76
2023/09/04 01:06:26;;;;;;;1.87;1.77;;;26.00;70.70;;;;;;5111349;28;20881;-76
2023/09/04 01:08:55;;;;;;;1.80;1.70;;;26.00;70.70;;;;;;5111341;28;20443;-75
2023/09/04 01:11:33;;;;;;;4.07;2.00;;;26.00;70.70;;;;;;5112713;28;20764;-76
2023/09/04 01:14:06;;;;;;;2.03;1.93;;;26.00;70.70;;;;;;5093022;28;20493;-76
2023/09/04 01:16:34;;;;;;;1.37;1.27;;;26.00;70.70;;;;;;5111538;28;20504;-76
2023/09/04 01:19:03;;;;;;;2.00;1.90;;;26.00;70.70;;;;;;5108731;28;20448;-76
2023/09/04 01:21:37;;;;;;;1.70;1.60;;;26.00;70.70;;;;;;5073589;28;20445;-76
2023/09/04 01:24:07;;;;;;;2.43;2.23;;;26.00;70.70;;;;;;5104815;28;20475;-76
2023/09/04 01:26:38;;;;;;;2.03;1.90;;;26.00;70.70;;;;;;5109177;28;20468;-76
2023/09/04 01:29:15;;;;;;;1.97;1.87;;;26.00;70.70;;;;;;5110291;28;20443;-76
2023/09/04 01:31:48;;;;;;;1.80;1.70;;;26.00;70.80;;;;;;5111053;28;20449;-76
2023/09/04 01:34:20;;;;;;;1.77;1.67;;;26.00;70.80;;;;;;5082790;28;21017;-76
2023/09/04 01:36:52;;;;;;;1.90;1.80;;;26.00;70.80;;;;;;5077694;28;20445;-76
2023/09/04 01:39:22;;;;;;;1.63;1.53;;;26.00;70.80;;;;;;5103168;28;20492;-76
2023/09/04 01:41:51;;;;;;;2.33;2.00;;;26.00;70.80;;;;;;5092479;28;20447;-76
2023/09/04 01:44:20;;;;;;;1.67;1.57;;;26.00;70.80;;;;;;5102303;28;20467;-76
2023/09/04 01:46:48;;;;;;;2.27;2.17;;;26.00;70.80;;;;;;5091965;28;20452;-76
2023/09/04 01:49:16;;;;;;;1.93;1.80;;;26.00;70.70;;;;;;5106388;28;21003;-76
2023/09/04 01:51:45;;;;;;;2.17;1.97;;;25.90;70.80;;;;;;5111465;28;20443;-76
2023/09/04 01:54:14;;;;;;;1.93;1.73;;;26.00;70.80;;;;;;5093473;28;20453;-76
2023/09/04 01:56:42;;;;;;;2.77;1.93;;;25.90;70.80;;;;;;5104729;28;20502;-76
2023/09/04 01:59:11;;;;;;;1.80;1.70;;;25.90;70.80;;;;;;5072720;28;20467;-76
2023/09/04 02:01:39;;;;;;;2.00;1.90;;;25.90;70.80;;;;;;5092985;28;20461;-76
2023/09/04 02:04:07;;;;;;;2.07;1.90;;;25.90;70.80;;;;;;5111200;28;20560;-76
2023/09/04 02:06:36;;;;;;;1.90;1.80;;;25.90;70.80;;;;;;5103723;28;20509;-76
2023/09/04 02:09:05;;;;;;;2.57;2.37;;;25.90;70.80;;;;;;5099238;28;20966;-76
2023/09/04 02:11:34;;;;;;;3.20;1.50;;;25.90;70.80;;;;;;5075823;28;20501;-76
2023/09/04 02:14:02;;;;;;;1.83;1.73;;;25.90;70.80;;;;;;5090749;28;20448;-76
2023/09/04 02:16:31;;;;;;;1.90;1.80;;;25.90;70.80;;;;;;5083801;28;20576;-76
2023/09/04 02:18:59;;;;;;;2.13;2.03;;;25.90;70.80;;;;;;5092884;28;20944;-76
2023/09/04 02:21:27;;;;;;;2.30;2.10;;;25.90;70.80;;;;;;5112031;28;20957;-76
2023/09/04 02:23:55;;;;;;;2.20;2.00;;;25.90;70.80;;;;;;5092622;28;20480;-76
2023/09/04 02:26:24;;;;;;;1.70;1.60;;;25.90;70.80;;;;;;5091464;28;20539;-75
2023/09/04 02:28:53;;;;;;;2.00;1.90;;;25.90;70.80;;;;;;5108067;28;20442;-76
2023/09/04 02:31:21;;;;;;;2.23;2.07;;;25.90;70.80;;;;;;5111083;28;20499;-76
2023/09/04 02:33:52;;;;;;;2.07;1.90;;;25.90;70.80;;;;;;5078529;28;20551;-75
2023/09/04 02:36:23;;;;;;;1.80;1.70;;;25.90;70.80;;;;;;5108378;28;20454;-76
2023/09/04 02:38:51;;;;;;;2.00;1.90;;;25.90;70.80;;;;;;5111195;28;20476;-76
2023/09/04 02:41:19;;;;;;;2.47;2.27;;;25.90;70.80;;;;;;5094335;28;20796;-76
2023/09/04 02:43:47;;;;;;;2.03;1.93;;;25.90;70.80;;;;;;5113312;28;20450;-76
2023/09/04 02:46:17;;;;;;;2.30;2.10;;;25.80;70.80;;;;;;5095598;28;20444;-76
2023/09/04 02:48:45;;;;;;;1.77;1.67;;;25.80;70.90;;;;;;5113798;28;20450;-75
2023/09/04 02:51:13;;;;;;;2.33;2.20;;;25.80;70.80;;;;;;5107064;28;20444;-76
2023/09/04 02:53:42;;;;;;;2.60;2.40;;;25.80;70.80;;;;;;5097236;28;20452;-76
2023/09/04 02:56:10;;;;;;;1.73;1.63;;;25.80;70.80;;;;;;5094916;28;20514;-76
2023/09/04 02:58:38;;;;;;;2.30;2.10;;;25.80;70.80;;;;;;5101558;28;21150;-76
2023/09/04 03:01:06;;;;;;;1.80;1.70;;;25.80;70.80;;;;;;5114110;28;20457;-76
2023/09/04 03:03:36;;;;;;;1.93;1.83;;;25.80;70.80;;;;;;5110393;28;20466;-75
2023/09/04 03:06:08;;;;;;;2.17;2.07;;;25.80;70.80;;;;;;5111844;28;20579;-76
2023/09/04 03:08:37;;;;;;;1.87;1.77;;;25.80;70.80;;;;;;5113311;28;20466;-76
2023/09/04 03:11:10;;;;;;;2.10;2.00;;;25.80;70.80;;;;;;5115033;28;20495;-76
2023/09/04 03:13:38;;;;;;;1.93;1.83;;;25.80;70.90;;;;;;5095111;28;20451;-76
2023/09/04 03:16:07;;;;;;;2.40;2.20;;;25.80;70.80;;;;;;5095755;28;20480;-76
2023/09/04 03:18:37;;;;;;;2.10;2.00;;;25.80;70.90;;;;;;5090376;28;20451;-76
2023/09/04 03:21:07;;;;;;;1.93;1.83;;;25.80;70.80;;;;;;5086736;28;20485;-76
2023/09/04 03:23:35;;;;;;;1.93;1.70;;;25.80;70.90;;;;;;5093232;28;20443;-76
2023/09/04 03:26:04;;;;;;;2.37;2.27;;;25.80;70.80;;;;;;5113069;28;20529;-76
2023/09/04 03:28:33;;;;;;;2.07;1.97;;;25.70;70.90;;;;;;5093741;28;20481;-75
2023/09/04 03:31:02;;;;;;;1.70;1.60;;;25.80;70.90;;;;;;5095532;28;20459;-76
2023/09/04 03:33:32;;;;;;;1.90;1.80;;;25.70;70.90;;;;;;5114070;28;20435;-76
2023/09/04 03:36:04;;;;;;;2.57;2.13;;;25.70;70.80;;;;;;5095244;28;20447;-75
2023/09/04 03:38:32;;;;;;;2.00;1.90;;;25.70;70.80;;;;;;5083799;28;20495;-75
2023/09/04 03:41:00;;;;;;;2.73;2.50;;;25.70;70.80;;;;;;5073957;28;21307;-75
2023/09/04 03:43:29;;;;;;;2.43;2.23;;;25.70;70.90;;;;;;5075335;28;20498;-75
2023/09/04 03:45:57;;;;;;;2.10;2.00;;;25.70;70.90;;;;;;5072976;28;20461;-75
2023/09/04 03:48:26;;;;;;;2.10;2.00;;;25.70;70.90;;;;;;5077778;28;20519;-76
2023/09/04 03:51:00;;;;;;;2.53;2.33;;;25.70;70.90;;;;;;5092303;28;20956;-77
2023/09/04 03:53:29;;;;;;;2.17;2.07;;;25.70;70.90;;;;;;5083034;28;20471;-76
2023/09/04 03:56:03;;;;;;;2.63;2.43;;;25.70;70.80;;;;;;5088215;28;20436;-76
2023/09/04 03:58:32;;;;;;;2.53;2.37;;;25.70;70.90;;;;;;5090200;28;20500;-76
2023/09/04 04:01:01;;;;;;;1.90;1.80;;;25.70;70.90;;;;;;5083723;28;20450;-77
2023/09/04 04:03:29;;;;;;;2.53;2.43;;;25.70;70.90;;;;;;5091236;28;20455;-77
2023/09/04 04:05:58;;;;;;;3.10;2.90;;;25.70;70.90;;;;;;5074292;28;20468;-76
2023/09/04 04:08:26;;;;;;;2.27;2.07;;;25.70;70.90;;;;;;5092184;28;20927;-76
2023/09/04 04:10:59;;;;;;;1.97;1.87;;;25.70;70.90;;;;;;5078380;28;20924;-76
2023/09/04 04:13:28;;;;;;;2.40;2.20;;;25.70;71.00;;;;;;5080790;28;20459;-77
2023/09/04 04:15:59;;;;;;;2.30;2.10;;;25.70;71.00;;;;;;5090656;28;20462;-76
2023/09/04 04:18:28;;;;;;;2.40;2.20;;;25.70;71.00;;;;;;5083347;28;20447;-77
2023/09/04 04:20:56;;;;;;;2.63;2.47;;;25.70;71.00;;;;;;5082678;28;20994;-76
2023/09/04 04:23:25;;;;;;;2.70;2.50;;;25.70;71.00;;;;;;5083619;28;20443;-77
2023/09/04 04:25:53;;;;;;;2.43;2.30;;;25.70;71.00;;;;;;5083216;28;20463;-76
2023/09/04 04:28:24;;;;;;;1.90;1.80;;;25.70;71.00;;;;;;5081956;28;20450;-76
2023/09/04 04:30:53;;;;;;;2.23;2.13;;;25.60;71.00;;;;;;5077811;28;20522;-76
2023/09/04 04:33:23;;;;;;;2.10;2.00;;;25.60;71.00;;;;;;5079282;28;20458;-76
2023/09/04 04:35:55;;;;;;;2.40;2.30;;;25.70;71.00;;;;;;5086075;28;20460;-76
2023/09/04 04:38:24;;;;;;;2.13;2.03;;;25.70;71.00;;;;;;5103798;28;20517;-76
2023/09/04 04:40:53;;;;;;;2.30;2.20;;;25.60;71.00;;;;;;5086027;28;20483;-76
2023/09/04 04:43:23;;;;;;;2.53;2.33;;;25.60;71.00;;;;;;5097706;28;20441;-75
2023/09/04 04:45:52;;;;;;;2.00;1.90;;;25.60;71.00;;;;;;5093778;28;20511;-76
2023/09/04 04:48:21;;;;;;;2.50;2.40;;;25.60;71.00;;;;;;5094134;28;20454;-76
2023/09/04 04:50:50;;;;;;;2.73;2.57;;;25.60;71.00;;;;;;5086000;28;20923;-76
2023/09/04 04:53:22;;;;;;;2.40;2.30;;;25.60;71.00;;;;;;5105755;28;20467;-76
2023/09/04 04:55:50;;;;;;;3.00;2.80;;;25.60;71.00;;;;;;5098592;28;20433;-76
2023/09/04 04:58:18;;;;;;;2.80;2.60;;;25.60;71.00;;;;;;5111069;28;20941;-76
2023/09/04 05:00:51;;;;;;;3.00;2.80;;;25.60;71.00;;;;;;5087198;28;20462;-76
2023/09/04 05:03:19;;;;;;;2.47;2.37;;;25.60;71.00;;;;;;5093333;28;20541;-76
2023/09/04 05:05:48;;;;;;;2.63;2.43;;;25.60;71.00;;;;;;5091897;28;20961;-76
2023/09/04 05:08:16;;;;;;;2.53;2.43;;;25.60;71.00;;;;;;5093576;28;20450;-76
2023/09/04 05:10:45;;;;;;;2.97;2.77;;;25.60;71.00;;;;;;5103881;28;20908;-76
2023/09/04 05:13:14;;;;;;;3.17;2.97;;;25.60;71.00;;;;;;5084604;28;20519;-76
2023/09/04 05:15:43;;;;;;;3.10;2.90;;;25.60;70.90;;;;;;5073864;28;20538;-75
2023/09/04 05:18:14;;;;;;;2.63;2.43;;;25.60;71.00;;;;;;5073652;28;20546;-76
2023/09/04 05:20:42;;;;;;;2.90;2.70;;;25.60;70.90;;;;;;5080110;28;20816;-76
2023/09/04 05:23:10;;;;;;;2.33;2.23;;;25.60;70.90;;;;;;5088907;28;20530;-76
2023/09/04 05:25:38;;;;;;;3.40;2.30;;;25.60;70.90;;;;;;5106697;28;20472;-76
2023/09/04 05:28:06;;;;;;;3.33;3.03;;;25.60;70.90;;;;;;5078553;28;20848;-76
2023/09/04 05:30:35;;;;;;;2.93;2.73;;;25.60;70.80;;;;;;5099095;28;20459;-76
2023/09/04 05:33:03;;;;;;;2.60;2.50;;;25.60;70.80;;;;;;5104512;28;20456;-76
2023/09/04 05:35:33;;;;;;;2.80;2.60;;;25.60;70.80;;;;;;5102492;28;20537;-76
2023/09/04 05:38:01;;;;;;;2.43;2.33;;;25.60;70.80;;;;;;5109189;28;20965;-76
2023/09/04 05:40:29;;;;;;;3.10;2.90;;;25.60;70.80;;;;;;5108711;28;20442;-75
2023/09/04 05:42:58;;;;;;;3.00;2.83;;;25.60;70.80;;;;;;5076574;28;20824;-76
2023/09/04 05:45:27;;;;;;;3.20;2.83;;;25.60;70.80;;;;;;5108477;28;20447;-76
2023/09/04 05:47:55;;;;;;;2.70;2.50;;;25.60;70.80;;;;;;5106975;28;20456;-76
2023/09/04 05:50:23;;;;;;;2.70;2.50;;;25.60;70.80;;;;;;5105782;28;20447;-76
2023/09/04 05:52:53;;;;;;;3.43;3.13;;;25.60;70.80;;;;;;5098936;28;20509;-76
2023/09/04 05:55:21;;;;;;;2.73;2.50;;;25.60;70.80;;;;;;5106490;28;20950;-76
2023/09/04 05:57:50;;;;;;;3.30;3.10;;;25.60;70.70;;;;;;5081208;28;20507;-76
2023/09/04 06:00:18;;;;;;;3.17;2.97;;;25.60;70.70;;;;;;5098932;28;20451;-76
2023/09/04 06:02:46;;;;;;;3.03;2.83;;;25.60;70.70;;;;;;5108232;28;20464;-76
2023/09/04 06:05:15;;;;;;;3.03;2.83;;;25.60;70.70;;;;;;5103960;28;20486;-75
2023/09/04 06:07:44;;;;;;;3.00;2.80;;;25.60;70.70;;;;;;5100403;28;20462;-76
2023/09/04 06:10:13;;;;;;;3.97;3.60;;;25.60;70.60;;;;;;5098825;28;20534;-76
2023/09/04 06:12:42;;;;;;;6.93;3.30;;;25.60;70.60;;;;;;5101449;28;20514;-75
2023/09/04 06:15:10;;;;;;;3.63;3.33;;;25.60;70.60;;;;;;5100596;28;20449;-75
2023/09/04 06:17:40;;;;;;;3.13;2.93;;;25.60;70.50;;;;;;5084308;28;21107;-76
2023/09/04 06:20:09;;;;;;;3.53;3.27;;;25.60;70.50;;;;;;5106338;28;20516;-76
2023/09/04 06:22:37;;;;;;;3.10;2.90;;;25.60;70.50;;;;;;5103238;28;20448;-76
2023/09/04 06:25:07;;;;;;;2.90;2.70;;;25.60;70.40;;;;;;5104831;28;20459;-76
2023/09/04 06:27:36;;;;;;;3.50;3.20;;;25.60;70.40;;;;;;5104564;28;20467;-76
2023/09/04 06:30:06;;;;;;;3.50;3.30;;;25.60;70.40;;;;;;5090827;28;21170;-76
2023/09/04 06:32:34;;;;;;;3.07;2.87;;;25.60;70.40;;;;;;5106979;28;20487;-76
2023/09/04 06:35:03;;;;;;;3.70;3.40;;;25.60;70.40;;;;;;5108801;28;20945;-76
2023/09/04 06:37:31;;;;;;;4.00;2.47;;;25.60;70.40;;;;;;5110634;28;20486;-75
2023/09/04 06:40:00;;;;;;;3.33;3.13;;;25.60;70.40;;;;;;5110567;28;20449;-76
2023/09/04 06:42:28;;;;;;;3.93;3.53;;;25.60;70.30;;;;;;5103568;28;20459;-76
2023/09/04 06:44:58;;;;;;;3.27;3.07;;;25.60;70.30;;;;;;5105501;28;20461;-76
2023/09/04 06:47:26;;;;;;;2.93;2.73;;;25.70;70.30;;;;;;5091187;28;20961;-76
2023/09/04 06:49:55;;;;;;;3.20;3.00;;;25.70;70.20;;;;;;5103173;28;20450;-76
2023/09/04 06:52:23;;;;;;;3.57;3.27;;;25.70;70.20;;;;;;5093103;28;20435;-76
2023/09/04 06:54:51;;;;;;;3.20;3.00;;;25.70;70.20;;;;;;5098591;28;20950;-76
2023/09/04 06:57:19;;;;;;;3.60;3.30;;;25.70;70.20;;;;;;5106184;28;20552;-76
2023/09/04 06:59:48;;;;;;;2.83;2.63;;;25.70;70.20;;;;;;5097162;28;20462;-76
2023/09/04 07:02:17;;;;;;;3.70;3.40;;;25.70;70.20;;;;;;5112904;28;20434;-77
2023/09/04 07:04:46;;;;;;;3.37;3.07;;;25.70;70.10;;;;;;5108497;28;20462;-75
2023/09/04 07:07:14;;;;;;;3.20;3.00;;;25.70;70.10;;;;;;5102742;28;20479;-75
2023/09/04 07:09:42;;;;;;;3.80;3.50;;;25.70;69.90;;;;;;5111122;28;20465;-75
2023/09/04 07:12:12;;;;;;;3.10;2.90;;;25.70;69.90;;;;;;5112261;28;20450;-75
2023/09/04 07:14:41;;;;;;;3.40;3.10;;;25.70;69.90;;;;;;5112877;28;20449;-76
2023/09/04 07:17:09;;;;;;;3.30;3.00;;;25.70;69.90;;;;;;5112949;28;20456;-77
2023/09/04 07:19:39;;;;;;;3.27;2.97;;;25.70;69.90;;;;;;5107101;28;20455;-76
2023/09/04 07:22:07;;;;;;;3.10;2.90;;;25.70;69.90;;;;;;5085796;28;20505;-75
2023/09/04 07:24:35;;;;;;;3.40;3.17;;;25.70;69.90;;;;;;5107631;28;20467;-76
2023/09/04 07:27:04;;;;;;;3.50;3.30;;;25.70;69.90;;;;;;5105097;28;20476;-76
2023/09/04 07:29:32;;;;;;;3.10;2.90;;;25.70;69.90;;;;;;5098669;28;20442;-76
2023/09/04 07:32:01;;;;;;;3.57;3.27;;;25.80;69.90;;;;;;5113513;28;20436;-75
2023/09/04 07:34:29;;;;;;;3.70;3.40;;;25.70;69.90;;;;;;5113127;28;20462;-76
2023/09/04 07:37:01;;;;;;;3.97;3.67;;;25.80;69.90;;;;;;5109189;28;20450;-75
2023/09/04 07:39:30;;;;;;;3.63;3.43;;;25.80;69.90;;;;;;5108347;28;20520;-76
2023/09/04 07:41:58;;;;;;;4.00;3.70;;;25.80;69.90;;;;;;5109898;28;20707;-76
2023/09/04 07:44:27;;;;;;;3.83;3.30;;;25.70;69.90;;;;;;5101967;28;20466;-75
2023/09/04 07:46:55;;;;;;;4.40;4.00;;;25.80;69.80;;;;;;5107533;28;20479;-75
2023/09/04 07:49:23;;;;;;;4.17;3.87;;;25.80;69.80;;;;;;5086926;28;20497;-76
2023/09/04 07:51:53;;;;;;;4.30;3.97;;;25.80;69.80;;;;;;5102731;28;20451;-76
2023/09/04 07:54:22;;;;;;;3.60;3.30;;;25.80;69.70;;;;;;5105001;28;20488;-77
2023/09/04 07:56:50;;;;;;;4.13;3.83;;;25.80;69.70;;;;;;5084496;28;20466;-76
2023/09/04 07:59:19;;;;;;;3.47;3.27;;;25.80;69.70;;;;;;5099966;28;20488;-76
2023/09/04 08:01:47;;;;;;;4.10;3.80;;;25.80;69.70;;;;;;5104663;28;20463;-76
2023/09/04 08:04:15;;;;;;;5.67;3.60;;;25.80;69.60;;;;;;5101511;28;20535;-76
2023/09/04 08:06:43;;;;;;;3.47;3.27;;;25.80;69.50;;;;;;5103532;28;20500;-76
2023/09/04 08:09:12;;;;;;;3.73;3.43;;;25.80;69.40;;;;;;5104942;28;20464;-76
2023/09/04 08:11:41;;;;;;;16.43;4.00;;;25.80;69.30;;;;;;5101947;28;20939;-76
2023/09/04 08:14:10;;;;;;;4.20;3.90;;;25.80;69.40;;;;;;5099903;28;20489;-76
2023/09/04 08:16:38;;;;;;;4.30;3.77;;;25.80;69.30;;;;;;5100474;28;20966;-77
2023/09/04 08:19:06;;;;;;;4.33;3.70;;;25.80;69.30;;;;;;5105614;28;20474;-76
2023/09/04 08:21:36;;;;;;;4.53;4.13;;;25.80;69.40;;;;;;5099931;28;20467;-76
2023/09/04 08:24:05;;;;;;;3.87;3.50;;;25.80;69.20;;;;;;5103934;28;20463;-76
2023/09/04 08:26:33;;;;;;;3.90;3.70;;;25.80;69.30;;;;;;5103597;28;20436;-77
2023/09/04 08:29:03;;;;;;;3.73;3.53;;;25.80;69.30;;;;;;5107217;28;20474;-73
2023/09/04 08:31:31;;;;;;;3.50;3.20;;;25.80;69.40;;;;;;5106610;28;21025;-75
2023/09/04 08:34:00;;;;;;;13.73;4.37;;;25.80;69.80;;;;;;5102157;28;20491;-74
2023/09/04 08:36:28;;;;;;;3.70;3.50;;;25.80;69.80;;;;;;5096735;28;20455;-74
2023/09/04 08:38:57;;;;;;;4.17;3.80;;;25.80;70.10;;;;;;5096623;28;20537;-75
2023/09/04 08:41:28;;;;;;;4.80;4.27;;;25.90;70.10;;;;;;5102030;28;20478;-75
2023/09/04 08:43:57;;;;;;;6.63;4.10;;;25.90;70.10;;;;;;5080173;28;20479;-75
2023/09/04 08:46:29;;;;;;;4.13;3.90;;;25.90;69.90;;;;;;5103123;28;20447;-75
2023/09/04 08:49:01;;;;;;;6.63;4.00;;;25.90;69.80;;;;;;5088923;28;20471;-74
2023/09/04 08:51:31;;;;;;;4.10;3.80;;;25.90;69.70;;;;;;5100131;28;20512;-74
2023/09/04 08:53:59;;;;;;;4.77;4.47;;;25.90;69.70;;;;;;5104143;28;20459;-73
2023/09/04 08:56:31;;;;;;;4.00;3.73;;;26.00;69.60;;;;;;5081193;28;20546;-73
2023/09/04 08:59:00;;;;;;;4.43;4.03;;;26.00;69.50;;;;;;5101475;28;20479;-74
2023/09/04 09:01:33;;;;;;;4.70;4.30;;;26.00;69.50;;;;;;5099465;28;20946;-73
2023/09/04 09:04:03;;;;;;;4.50;4.10;;;26.00;69.40;;;;;;5104560;28;20431;-74
2023/09/04 09:06:31;;;;;;;4.30;4.00;;;26.00;69.40;;;;;;5106384;28;20931;-73
2023/09/04 09:09:00;;;;;;;4.30;3.90;;;26.00;69.40;;;;;;5099201;28;21039;-75
2023/09/04 09:11:29;;;;;;;4.37;4.00;;;26.10;69.40;;;;;;5101037;28;20443;-74
2023/09/04 09:13:58;;;;;;;4.17;3.97;;;26.10;69.40;;;;;;5098944;28;20788;-75
2023/09/04 09:16:26;;;;;;;4.50;4.20;;;26.10;69.40;;;;;;5104851;28;20510;-75
2023/09/04 09:18:57;;;;;;;4.03;3.73;;;26.10;69.40;;;;;;5100925;28;20538;-74
2023/09/04 09:21:27;;;;;;;4.40;4.10;;;26.10;69.40;;;;;;5101464;28;20809;-75
2023/09/04 09:24:17;;;;;;;4.73;4.33;;;26.10;69.40;;;;;;5102416;28;21118;-74
2023/09/04 09:26:47;;;;;;;4.50;4.10;;;26.20;69.40;;;;;;5100674;28;20934;-75
2023/09/04 09:29:15;;;;;;;4.33;4.03;;;26.20;69.40;;;;;;5102912;28;20467;-74
2023/09/04 09:31:45;;;;;;;4.50;4.20;;;26.20;69.40;;;;;;5098187;28;20901;-75
2023/09/04 09:34:18;;;;;;;4.67;4.30;;;26.20;69.40;;;;;;5086486;28;20537;-75
2023/09/04 09:36:47;;;;;;;4.47;4.17;;;26.20;69.30;;;;;;5102245;28;20452;-75
2023/09/04 09:39:16;;;;;;;3.93;3.63;;;26.20;69.30;;;;;;5106927;28;20842;-75
2023/09/04 09:41:46;;;;;;;4.30;3.90;;;26.30;69.30;;;;;;5107038;28;20436;-75
2023/09/04 09:44:15;;;;;;;4.00;3.80;;;26.30;69.30;;;;;;5083975;28;20555;-74
2023/09/04 09:46:43;;;;;;;4.00;3.70;;;26.30;69.30;;;;;;5101680;28;20460;-74
2023/09/04 09:49:12;;;;;;;4.70;4.30;;;26.30;69.20;;;;;;5100684;28;20466;-79
2023/09/04 09:51:42;;;;;;;5.10;3.67;;;26.30;69.20;;;;;;5100667;28;20949;-82
2023/09/04 09:54:12;;;;;;;4.07;3.67;;;26.30;69.20;;;;;;5107743;28;20518;-83
2023/09/04 09:56:42;;;;;;;4.10;3.80;;;26.40;69.20;;;;;;5107372;28;20779;-84
2023/09/04 09:59:13;;;;;;;4.57;3.70;;;26.40;69.20;;;;;;5101873;28;20452;-83
2023/09/04 10:01:42;;;;;;;4.17;3.87;;;26.40;69.20;;;;;;5102181;28;20948;-85
2023/09/04 10:04:11;;;;;;;4.10;3.83;;;26.40;69.20;;;;;;5106000;28;20451;-81
2023/09/04 10:06:43;;;;;;;4.57;3.83;;;26.50;69.20;;;;;;5105023;28;20459;-77
2023/09/04 10:09:13;;;;;;;4.50;4.20;;;26.50;69.30;;;;;;5084779;28;20544;-78
2023/09/04 10:11:47;;;;;;;4.10;3.70;;;26.50;69.30;;;;;;5105725;28;20456;-80
2023/09/04 10:14:26;;;;;;;3.50;3.20;;;26.50;69.30;;;;;;5103419;28;20462;-84
2023/09/04 10:17:01;;;;;;;4.00;3.63;;;26.50;69.30;;;;;;5105521;27;20517;-80
2023/09/04 10:19:31;;;;;;;3.67;3.37;;;26.50;69.30;;;;;;5105236;28;20460;-79
2023/09/04 10:22:08;;;;;;;4.77;4.27;;;26.50;69.30;;;;;;5104206;28;20487;-78
2023/09/04 10:24:44;;;;;;;4.63;4.20;;;26.50;69.20;;;;;;5107888;28;20465;-77
2023/09/04 10:27:13;;;;;;;4.20;3.90;;;26.50;69.00;;;;;;5102747;28;20453;-76
2023/09/04 10:30:03;;;;;;;5.03;4.63;;;26.50;68.90;;;;;;5107538;28;20479;-76
2023/09/04 10:32:33;;;;;;;4.00;3.80;;;26.50;68.80;;;;;;5100396;28;20441;-79
2023/09/04 10:35:02;;;;;;;4.00;3.70;;;26.40;68.80;;;;;;5106233;28;20793;-77
2023/09/04 10:37:32;;;;;;;4.80;4.40;;;26.40;68.70;;;;;;5109560;28;20572;-78
2023/09/04 10:40:02;;;;;;;4.30;3.90;;;26.40;68.70;;;;;;5102508;28;20561;-73
2023/09/04 10:42:32;;;;;;;4.30;3.90;;;26.40;68.60;;;;;;5097897;28;20457;-74
2023/09/04 10:45:13;;;;;;;5.00;4.60;;;26.40;68.80;;;;;;5107869;28;20538;-72
2023/09/04 10:47:46;;;;;;;4.60;4.20;;;26.30;68.70;;;;;;5106857;28;20460;-72
2023/09/04 10:50:30;;;;;;;4.60;4.30;;;26.30;68.90;;;;;;5107545;28;20465;-75
2023/09/04 10:53:01;;;;;;;4.60;4.30;;;26.30;68.80;;;;;;5103623;28;20464;-76
2023/09/04 10:55:30;;;;;;;4.30;4.00;;;26.30;68.80;;;;;;5103013;28;20903;-73
2023/09/04 10:58:01;;;;;;;4.47;4.07;;;26.30;68.70;;;;;;5084117;28;20459;-72
2023/09/04 11:00:32;;;;;;;3.80;3.60;;;26.30;68.80;;;;;;5102071;28;20976;-73
2023/09/04 11:03:15;;;;;;;4.60;3.73;;;26.30;68.80;;;;;;5106911;28;20875;-71
2023/09/04 11:06:20;;;;;;;4.87;4.47;;;26.30;69.00;;;;;;5085689;28;20471;-72
2023/09/04 11:08:53;;;;;;;4.50;4.30;;;26.40;69.00;;;;;;5007523;28;20481;-72
2023/09/04 11:11:26;;;;;;;3.70;3.50;;;26.40;68.90;;;;;;5094000;28;20963;-72
2023/09/04 11:14:00;;;;;;;4.13;3.83;;;26.50;68.60;;;;;;5105967;28;20470;-72
2023/09/04 11:16:36;;;;;;;4.40;4.10;;;26.60;68.40;;;;;;5104260;28;20456;-73
2023/09/04 11:19:07;;;;;;;3.80;3.60;;;26.90;67.70;;;;;;5106774;28;20810;-71
2023/09/04 11:21:38;;;;;;;4.03;3.83;;;27.10;67.10;;;;;;5109958;28;20455;-71
2023/09/04 11:24:08;;;;;;;4.13;3.93;;;27.30;66.70;;;;;;5104438;28;20440;-71
2023/09/04 11:26:38;;;;;;;4.07;3.50;;;27.60;66.20;;;;;;5109450;28;20466;-71
2023/09/04 11:29:07;;;;;;;3.80;3.50;;;27.80;65.70;;;;;;5098947;28;20491;-72
2023/09/04 11:31:36;;;;;;;4.37;4.07;;;27.90;65.20;;;;;;5106060;28;20491;-71
2023/09/04 11:34:05;;;;;;;4.27;3.97;;;28.00;64.90;;;;;;5083090;28;20454;-72
2023/09/04 11:36:38;;;;;;;4.17;3.83;;;28.10;64.80;;;;;;5103797;28;20473;-73
2023/09/04 11:39:10;;;;;;;4.10;3.80;;;28.10;64.70;;;;;;5100581;28;20495;-72
2023/09/04 11:41:39;;;;;;;4.40;4.10;;;28.10;64.50;;;;;;5103546;28;20459;-72
2023/09/04 11:44:08;;;;;;;3.80;3.50;;;28.10;64.40;;;;;;5100418;28;20442;-74
2023/09/04 11:46:37;;;;;;;4.20;3.90;;;28.10;64.40;;;;;;5103924;28;21070;-72
2023/09/04 11:49:08;;;;;;;3.53;3.33;;;28.20;64.30;;;;;;5097096;28;20478;-74
2023/09/04 11:51:37;;;;;;;3.90;3.57;;;28.20;64.30;;;;;;5098142;28;20994;-78
2023/09/04 11:54:08;;;;;;;4.13;3.83;;;28.20;64.20;;;;;;5098946;28;20539;-78
2023/09/04 11:56:38;;;;;;;3.57;3.37;;;28.30;63.90;;;;;;5097937;28;20558;-76
2023/09/04 11:59:06;;;;;;;4.50;4.10;;;28.30;63.80;;;;;;5093774;28;20532;-72
2023/09/04 12:01:35;;;;;;;4.20;3.90;;;28.30;63.50;;;;;;5104833;28;20482;-72
2023/09/04 12:04:05;;;;;;;4.20;3.90;;;28.30;63.40;;;;;;5107496;28;20536;-72
2023/09/04 12:06:36;;;;;;;4.30;4.10;;;28.40;63.10;;;;;;5100489;28;20451;-72
2023/09/04 12:09:05;;;;;;;3.90;3.60;;;28.40;63.00;;;;;;5083941;28;20812;-72
2023/09/04 12:11:35;;;;;;;4.37;4.07;;;28.50;63.10;;;;;;5101544;28;20935;-75
2023/09/04 12:14:11;;;;;;;3.97;3.67;;;28.50;62.80;;;;;;5105212;28;20440;-71
2023/09/04 12:16:43;;;;;;;3.80;3.60;;;28.50;62.70;;;;;;5102903;28;20449;-72
2023/09/04 12:19:12;;;;;;;4.30;4.00;;;28.50;62.60;;;;;;5108577;28;20543;-72
2023/09/04 12:21:41;;;;;;;4.27;3.97;;;28.60;62.30;;;;;;5112064;28;20443;-71
2023/09/04 12:24:12;;;;;;;4.43;4.13;;;28.60;62.10;;;;;;5108222;28;20454;-71
2023/09/04 12:26:43;;;;;;;4.90;4.40;;;28.60;62.10;;;;;;5107269;28;20445;-71
2023/09/04 12:29:11;;;;;;;3.97;3.67;;;28.60;61.80;;;;;;5085566;28;20524;-71
2023/09/04 12:31:41;;;;;;;4.37;4.07;;;28.70;61.90;;;;;;5106020;28;20509;-71
2023/09/04 12:34:09;;;;;;;4.13;3.90;;;28.70;61.70;;;;;;5105629;28;20491;-71
2023/09/04 12:36:39;;;;;;;4.10;3.80;;;28.70;61.60;;;;;;5096877;28;21124;-71
2023/09/04 12:39:07;;;;;;;3.90;3.60;;;28.70;61.40;;;;;;5103016;28;20479;-71
2023/09/04 12:41:37;;;;;;;4.43;4.13;;;28.80;61.50;;;;;;5101136;28;21010;-71
2023/09/04 12:44:06;;;;;;;4.83;4.53;;;28.70;61.50;;;;;;5105161;28;20464;-71
2023/09/04 12:46:35;;;;;;;4.10;3.80;;;28.70;61.50;;;;;;5100263;28;20465;-71
2023/09/04 12:49:03;;;;;;;4.23;3.93;;;28.60;61.70;;;;;;5107364;28;20928;-72
2023/09/04 12:51:32;;;;;;;4.17;3.87;;;28.60;61.70;;;;;;5104518;28;20818;-75
2023/09/04 12:54:00;;;;;;;4.97;4.67;;;28.60;61.80;;;;;;5103202;28;20557;-78
2023/09/04 12:56:28;;;;;;;4.80;4.40;;;28.60;61.90;;;;;;5109312;28;21111;-78
2023/09/04 12:58:57;;;;;;;4.70;4.30;;;28.50;61.90;;;;;;5104113;28;20451;-73
2023/09/04 13:01:28;;;;;;;4.43;4.13;;;28.50;62.10;;;;;;5101698;28;20807;-73